Time;durP1;ratioP1;P1;durP2;ratioP2;P2;SDS_P1;SDS_P2;PMS_P1;PMS_P2;Temp;Humidity;BMP_temperature;BMP_pressure;BME280_temperature;BME280_humidity;BME280_pressure;Samples;Min_cycle;Max_cycle;Signal;HPM_P1;HPM_P2
2022/07/11 00:02:03;;;;;;;2.83;2.50;;;15.70;99.90;;;;;;5025816;28;20502;-83
2022/07/11 00:04:29;;;;;;;5.00;2.90;;;15.70;99.90;;;;;;5028370;28;20048;-83
2022/07/11 00:06:56;;;;;;;4.72;3.03;;;15.60;99.90;;;;;;5028604;28;20045;-83
2022/07/11 00:09:21;;;;;;;5.82;2.63;;;15.70;99.90;;;;;;5032139;28;20472;-82
2022/07/11 00:11:48;;;;;;;3.95;2.10;;;15.70;99.90;;;;;;4997779;28;20041;-82
2022/07/11 00:14:14;;;;;;;4.22;2.53;;;15.60;99.90;;;;;;5030629;28;20037;-82
2022/07/11 00:16:40;;;;;;;5.15;3.20;;;15.60;99.90;;;;;;5043785;28;20464;-83
2022/07/11 00:19:06;;;;;;;5.13;2.50;;;15.60;99.90;;;;;;5015426;28;20061;-83
2022/07/11 00:21:33;;;;;;;4.22;2.65;;;15.60;99.90;;;;;;5028150;28;20062;-83
2022/07/11 00:23:59;;;;;;;3.28;2.28;;;15.70;99.90;;;;;;5044363;28;20056;-83
2022/07/11 00:26:25;;;;;;;3.78;2.40;;;15.60;99.90;;;;;;5025175;28;20042;-82
2022/07/11 00:28:51;;;;;;;5.25;2.50;;;15.60;99.90;;;;;;5048779;28;20112;-82
2022/07/11 00:31:16;;;;;;;4.50;2.38;;;15.60;99.90;;;;;;5030565;28;20079;-83
2022/07/11 00:33:42;;;;;;;3.22;2.08;;;15.60;99.90;;;;;;5024878;28;20029;-82
2022/07/11 00:36:08;;;;;;;3.70;1.95;;;15.50;99.90;;;;;;5018665;28;20037;-83
2022/07/11 00:38:34;;;;;;;3.67;2.10;;;15.50;99.90;;;;;;5039480;28;20033;-83
2022/07/11 00:41:00;;;;;;;3.10;2.00;;;15.50;99.90;;;;;;5051326;28;20509;-83
2022/07/11 00:43:34;;;;;;;4.90;2.00;;;15.60;99.90;;;;;;5034896;28;20049;-81
2022/07/11 00:46:00;;;;;;;3.28;1.90;;;15.50;99.90;;;;;;5051160;28;20479;-82
2022/07/11 00:48:27;;;;;;;3.85;2.00;;;15.50;99.90;;;;;;5031588;28;20107;-82
2022/07/11 00:50:53;;;;;;;4.07;1.85;;;15.50;99.90;;;;;;5047032;28;20034;-83
2022/07/11 00:53:20;;;;;;;3.65;1.73;;;15.50;99.90;;;;;;5015186;28;20069;-83
2022/07/11 00:55:47;;;;;;;3.22;1.80;;;15.50;99.90;;;;;;5049561;28;20049;-83
2022/07/11 00:58:13;;;;;;;3.45;1.95;;;15.50;99.90;;;;;;5032565;28;20047;-83
2022/07/11 01:00:40;;;;;;;4.47;1.80;;;15.50;99.90;;;;;;5032003;28;20037;-82
2022/07/11 01:03:07;;;;;;;2.45;1.60;;;15.50;99.90;;;;;;5026728;28;20055;-82
2022/07/11 01:05:33;;;;;;;2.38;1.40;;;15.50;99.90;;;;;;5046960;28;20119;-81
2022/07/11 01:07:59;;;;;;;3.38;1.50;;;15.50;99.90;;;;;;5045255;28;20117;-82
2022/07/11 01:10:25;;;;;;;2.42;1.48;;;15.40;99.90;;;;;;5024667;28;20284;-82
2022/07/11 01:12:51;;;;;;;3.60;2.00;;;15.40;99.90;;;;;;5048979;28;20803;-82
2022/07/11 01:15:17;;;;;;;1.95;1.67;;;15.40;99.90;;;;;;5012959;28;20041;-83
2022/07/11 01:17:43;;;;;;;4.57;1.90;;;15.40;99.90;;;;;;5029216;28;20037;-83
2022/07/11 01:20:12;;;;;;;2.10;1.70;;;15.40;99.90;;;;;;5034191;28;20500;-82
2022/07/11 01:22:51;;;;;;;2.15;1.70;;;15.30;99.90;;;;;;5037202;28;20037;-82
2022/07/11 01:25:30;;;;;;;2.97;1.63;;;15.30;99.90;;;;;;5031756;28;20182;-81
2022/07/11 01:28:03;;;;;;;2.47;1.50;;;15.30;99.90;;;;;;5049296;28;20067;-82
2022/07/11 01:30:31;;;;;;;3.38;1.75;;;15.30;99.90;;;;;;5045753;28;20060;-82
2022/07/11 01:32:57;;;;;;;3.22;1.48;;;15.30;99.90;;;;;;5015095;28;20059;-83
2022/07/11 01:35:23;;;;;;;2.42;1.70;;;15.20;99.90;;;;;;5034166;28;20126;-83
2022/07/11 01:37:49;;;;;;;3.60;1.80;;;15.20;99.90;;;;;;5033271;28;20186;-82
2022/07/11 01:40:16;;;;;;;3.70;2.22;;;15.20;99.90;;;;;;5032416;28;20358;-82
2022/07/11 01:42:42;;;;;;;2.70;1.75;;;15.10;99.90;;;;;;4997678;28;20468;-83
2022/07/11 01:45:09;;;;;;;2.28;1.98;;;15.20;99.90;;;;;;5025770;28;20499;-83
2022/07/11 01:47:35;;;;;;;2.92;1.90;;;15.20;99.90;;;;;;5029638;28;20068;-83
2022/07/11 01:50:01;;;;;;;2.90;1.95;;;15.10;99.90;;;;;;5045638;28;20123;-83
2022/07/11 01:52:27;;;;;;;3.00;1.98;;;15.20;99.90;;;;;;5011815;28;20041;-83
2022/07/11 01:54:53;;;;;;;3.35;1.70;;;15.20;99.90;;;;;;5044771;28;20040;-83
2022/07/11 01:57:19;;;;;;;1.95;1.60;;;15.20;99.90;;;;;;5031447;28;20037;-83
2022/07/11 01:59:44;;;;;;;3.10;1.90;;;15.20;99.90;;;;;;5030226;28;20041;-83
2022/07/11 02:02:10;;;;;;;4.22;1.92;;;15.20;99.90;;;;;;5029315;28;20037;-82
2022/07/11 02:04:36;;;;;;;3.50;1.85;;;15.20;99.90;;;;;;5024495;28;20056;-82
2022/07/11 02:07:02;;;;;;;2.72;1.90;;;15.20;99.90;;;;;;5025772;28;20033;-82
2022/07/11 02:09:27;;;;;;;3.95;1.80;;;15.20;99.90;;;;;;5023654;28;20038;-82
2022/07/11 02:11:53;;;;;;;2.72;2.00;;;15.20;99.90;;;;;;5031680;28;20029;-83
2022/07/11 02:14:19;;;;;;;2.85;2.03;;;15.20;99.90;;;;;;5029212;28;20520;-83
2022/07/11 02:16:44;;;;;;;2.88;2.10;;;15.20;99.90;;;;;;5019994;28;20056;-83
2022/07/11 02:19:10;;;;;;;3.75;2.35;;;15.20;99.90;;;;;;5037940;28;20088;-82
2022/07/11 02:21:37;;;;;;;4.20;2.00;;;15.20;99.90;;;;;;5050364;28;20075;-83
2022/07/11 02:24:03;;;;;;;2.42;1.98;;;15.20;99.90;;;;;;5030507;28;20069;-82
2022/07/11 02:26:29;;;;;;;3.83;1.75;;;15.10;99.90;;;;;;5007007;28;20048;-83
2022/07/11 02:28:55;;;;;;;2.83;2.03;;;15.10;99.90;;;;;;5046925;28;20041;-82
2022/07/11 02:31:21;;;;;;;3.47;2.13;;;15.10;99.90;;;;;;5028444;28;20037;-82
2022/07/11 02:33:47;;;;;;;2.25;1.80;;;15.10;99.90;;;;;;5024495;28;20574;-83
2022/07/11 02:36:13;;;;;;;3.58;2.00;;;15.20;99.90;;;;;;5050569;28;20037;-82
2022/07/11 02:38:38;;;;;;;3.80;2.60;;;15.10;99.90;;;;;;5020979;28;20192;-82
2022/07/11 02:41:04;;;;;;;3.72;2.85;;;15.10;99.90;;;;;;5023506;28;20029;-81
2022/07/11 02:43:30;;;;;;;4.10;2.70;;;15.10;99.90;;;;;;5015020;28;20037;-82
2022/07/11 02:45:56;;;;;;;4.18;2.80;;;15.10;99.90;;;;;;5029125;28;20132;-82
2022/07/11 02:48:21;;;;;;;3.88;2.70;;;15.10;99.90;;;;;;5011419;28;20366;-82
2022/07/11 02:50:47;;;;;;;4.72;3.05;;;15.10;99.90;;;;;;5044124;28;20098;-81
2022/07/11 02:53:13;;;;;;;3.72;3.10;;;15.10;99.90;;;;;;5031929;28;20037;-81
2022/07/11 02:55:40;;;;;;;5.32;2.88;;;15.20;99.90;;;;;;5040496;28;20098;-82
2022/07/11 02:58:05;;;;;;;4.80;3.28;;;15.10;99.90;;;;;;5032204;28;20451;-83
2022/07/11 03:00:31;;;;;;;5.35;3.65;;;15.10;99.90;;;;;;5045750;28;20037;-82
2022/07/11 03:02:57;;;;;;;4.03;3.58;;;15.10;99.90;;;;;;5026319;28;20048;-82
2022/07/11 03:05:23;;;;;;;4.90;3.50;;;15.10;99.90;;;;;;4998611;28;20037;-81
2022/07/11 03:07:49;;;;;;;4.20;3.63;;;15.20;99.90;;;;;;5028952;28;20045;-83
2022/07/11 03:10:15;;;;;;;5.93;3.90;;;15.10;99.90;;;;;;5022920;28;20073;-83
2022/07/11 03:12:41;;;;;;;5.78;3.90;;;15.10;99.90;;;;;;5044595;28;20055;-83
2022/07/11 03:15:08;;;;;;;5.07;4.05;;;15.10;99.90;;;;;;5026203;28;20042;-82
2022/07/11 03:17:35;;;;;;;5.68;4.32;;;15.20;99.90;;;;;;5041781;28;20555;-83
2022/07/11 03:20:02;;;;;;;5.10;3.95;;;15.20;99.90;;;;;;5024653;28;20084;-83
2022/07/11 03:22:28;;;;;;;5.68;4.28;;;15.10;99.90;;;;;;5041697;28;20063;-83
2022/07/11 03:24:54;;;;;;;4.90;4.07;;;15.10;99.90;;;;;;5042415;28;20435;-82
2022/07/11 03:27:20;;;;;;;6.45;4.13;;;15.10;99.90;;;;;;5043905;28;20346;-83
2022/07/11 03:29:46;;;;;;;6.45;4.20;;;15.10;99.90;;;;;;5014886;28;20068;-83
2022/07/11 03:32:12;;;;;;;6.00;4.20;;;15.10;99.90;;;;;;5031606;28;20087;-83
2022/07/11 03:34:38;;;;;;;5.03;3.88;;;15.10;99.90;;;;;;5043013;28;20040;-82
2022/07/11 03:37:04;;;;;;;4.35;3.65;;;15.10;99.90;;;;;;5029731;28;20092;-83
2022/07/11 03:39:30;;;;;;;7.25;4.00;;;15.10;99.90;;;;;;5047332;28;20041;-84
2022/07/11 03:41:56;;;;;;;5.57;3.63;;;15.10;99.90;;;;;;5014579;28;20614;-83
2022/07/11 03:44:21;;;;;;;7.00;3.72;;;15.10;99.90;;;;;;5032395;28;20041;-83
2022/07/11 03:46:48;;;;;;;3.88;2.88;;;15.10;99.90;;;;;;5022211;28;20130;-83
2022/07/11 03:49:13;;;;;;;4.50;3.22;;;15.10;99.90;;;;;;5026209;28;20040;-83
2022/07/11 03:51:39;;;;;;;4.93;2.90;;;15.10;99.90;;;;;;5044305;28;20044;-83
2022/07/11 03:54:05;;;;;;;4.72;3.28;;;15.10;99.90;;;;;;5023140;28;20037;-83
2022/07/11 03:56:31;;;;;;;6.35;3.45;;;15.10;99.90;;;;;;5029719;28;20116;-83
2022/07/11 03:58:57;;;;;;;3.90;3.15;;;15.10;99.90;;;;;;5043318;28;20128;-83
2022/07/11 04:01:23;;;;;;;3.90;3.17;;;15.10;99.90;;;;;;5034797;28;20034;-83
2022/07/11 04:03:49;;;;;;;5.20;3.25;;;15.10;99.90;;;;;;5048309;28;20048;-83
2022/07/11 04:06:15;;;;;;;6.38;3.30;;;15.10;99.90;;;;;;5031613;28;20071;-83
2022/07/11 04:08:41;;;;;;;5.10;3.10;;;15.20;99.90;;;;;;5026609;28;20033;-83
2022/07/11 04:11:07;;;;;;;4.28;3.25;;;15.20;99.90;;;;;;5023792;28;20033;-82
2022/07/11 04:13:33;;;;;;;3.80;3.28;;;15.20;99.90;;;;;;5032869;28;20044;-82
2022/07/11 04:15:58;;;;;;;4.25;3.35;;;15.20;99.90;;;;;;5041724;28;20041;-82
2022/07/11 04:18:24;;;;;;;3.65;3.22;;;15.20;99.90;;;;;;5055736;28;20040;-83
2022/07/11 04:20:50;;;;;;;5.00;3.15;;;15.20;99.90;;;;;;5047996;28;20044;-83
2022/07/11 04:23:16;;;;;;;5.00;2.90;;;15.20;99.90;;;;;;5015702;28;20143;-83
2022/07/11 04:25:42;;;;;;;6.13;3.30;;;15.20;99.90;;;;;;5031612;28;20037;-83
2022/07/11 04:28:08;;;;;;;3.58;3.00;;;15.20;99.90;;;;;;5027751;28;20048;-83
2022/07/11 04:30:34;;;;;;;5.72;3.60;;;15.30;99.90;;;;;;5049549;28;20384;-82
2022/07/11 04:33:00;;;;;;;5.40;3.20;;;15.30;99.90;;;;;;5030218;28;20105;-83
2022/07/11 04:35:30;;;;;;;5.28;3.42;;;15.30;99.90;;;;;;5040000;28;20052;-83
2022/07/11 04:37:57;;;;;;;5.20;3.35;;;15.30;99.90;;;;;;5052967;28;20048;-82
2022/07/11 04:40:23;;;;;;;6.63;3.60;;;15.40;99.90;;;;;;5022368;28;20044;-84
2022/07/11 04:42:52;;;;;;;6.10;3.63;;;15.30;99.90;;;;;;5021596;28;20037;-83
2022/07/11 04:45:18;;;;;;;3.70;3.05;;;15.30;99.90;;;;;;5035448;28;20036;-83
2022/07/11 04:47:44;;;;;;;4.80;2.80;;;15.40;99.90;;;;;;5034895;28;20406;-83
2022/07/11 04:50:10;;;;;;;4.22;3.00;;;15.30;99.90;;;;;;5032268;28;20035;-85
2022/07/11 04:52:36;;;;;;;3.47;2.80;;;15.40;99.90;;;;;;5033901;28;20096;-85
2022/07/11 04:55:02;;;;;;;5.38;2.70;;;15.40;99.90;;;;;;5053097;28;20051;-84
2022/07/11 04:57:27;;;;;;;4.30;2.50;;;15.40;99.90;;;;;;5049671;28;20078;-85
2022/07/11 04:59:53;;;;;;;3.53;2.38;;;15.40;99.90;;;;;;5034116;28;20086;-86
2022/07/11 05:02:19;;;;;;;3.22;2.10;;;15.40;99.90;;;;;;5027845;28;20040;-85
2022/07/11 05:04:45;;;;;;;5.65;2.22;;;15.40;99.90;;;;;;5015208;28;20127;-85
2022/07/11 05:07:13;;;;;;;4.75;2.03;;;15.30;99.90;;;;;;5028610;28;20044;-86
2022/07/11 05:09:39;;;;;;;3.50;1.92;;;15.40;99.90;;;;;;5049331;28;20040;-87
2022/07/11 05:12:06;;;;;;;2.90;1.70;;;15.40;99.90;;;;;;5022474;28;20131;-86
2022/07/11 05:14:32;;;;;;;2.38;1.90;;;15.30;99.90;;;;;;5014789;28;20532;-85
2022/07/11 05:16:58;;;;;;;3.22;1.90;;;15.30;99.90;;;;;;5022911;28;20128;-87
2022/07/11 05:19:24;;;;;;;2.92;1.73;;;15.40;99.90;;;;;;5036493;28;20033;-86
2022/07/11 05:21:49;;;;;;;2.35;1.90;;;15.40;99.90;;;;;;5030483;28;20054;-86
2022/07/11 05:24:15;;;;;;;2.85;1.83;;;15.50;99.90;;;;;;5050199;28;20029;-86
2022/07/11 05:26:44;;;;;;;3.05;1.85;;;15.50;99.90;;;;;;5020952;28;20036;-86
2022/07/11 05:29:10;;;;;;;1.95;1.63;;;15.50;99.90;;;;;;5055771;28;20033;-85
2022/07/11 05:31:36;;;;;;;2.38;1.70;;;15.50;99.90;;;;;;5031905;28;20032;-86
2022/07/11 05:34:02;;;;;;;1.88;1.67;;;15.50;99.90;;;;;;5002746;28;20037;-87
2022/07/11 05:36:27;;;;;;;2.53;1.60;;;15.50;99.90;;;;;;5029651;28;20044;-87
2022/07/11 05:38:53;;;;;;;2.58;1.70;;;15.50;99.90;;;;;;5033896;28;20045;-85
2022/07/11 05:41:19;;;;;;;3.63;1.60;;;15.50;99.90;;;;;;5047928;28;20065;-85
2022/07/11 05:43:45;;;;;;;3.65;1.67;;;15.60;99.90;;;;;;5031092;28;20039;-87
2022/07/11 05:46:10;;;;;;;2.83;1.80;;;15.60;99.90;;;;;;5031735;28;20466;-86
2022/07/11 05:48:36;;;;;;;2.53;1.25;;;15.60;99.90;;;;;;5051142;28;20119;-86
2022/07/11 05:51:01;;;;;;;1.73;1.30;;;15.60;99.90;;;;;;5039342;28;20063;-86
2022/07/11 05:53:27;;;;;;;1.77;1.40;;;15.60;99.90;;;;;;5023156;28;20032;-86
2022/07/11 05:55:53;;;;;;;1.50;1.10;;;15.70;99.90;;;;;;5022925;28;20048;-86
2022/07/11 05:58:19;;;;;;;1.90;1.05;;;15.70;99.90;;;;;;5039408;28;20040;-84
2022/07/11 06:00:44;;;;;;;1.70;1.05;;;15.70;99.90;;;;;;5016387;28;20033;-85
2022/07/11 06:03:10;;;;;;;3.83;1.35;;;15.70;99.90;;;;;;5053905;28;20633;-85
2022/07/11 06:05:36;;;;;;;1.30;0.90;;;15.70;99.90;;;;;;5029916;28;20452;-85
2022/07/11 06:10:45;;;;;;;0.90;0.88;;;15.70;99.90;;;;;;5034719;28;20544;-87
2022/07/11 06:13:11;;;;;;;2.28;1.00;;;15.70;99.90;;;;;;5035607;28;20097;-84
2022/07/11 06:15:37;;;;;;;1.13;0.70;;;15.70;99.90;;;;;;5038439;28;20043;-88
2022/07/11 06:18:03;;;;;;;1.83;0.80;;;15.70;99.90;;;;;;5018496;28;20053;-86
2022/07/11 06:20:29;;;;;;;1.30;0.85;;;15.70;99.90;;;;;;5002521;28;20048;-84
2022/07/11 06:22:55;;;;;;;1.42;0.80;;;15.70;99.90;;;;;;5006408;28;20047;-85
2022/07/11 06:25:20;;;;;;;1.40;0.80;;;15.70;99.90;;;;;;5056024;28;20400;-85
2022/07/11 06:27:46;;;;;;;1.50;0.60;;;15.60;99.90;;;;;;5048403;28;20044;-87
2022/07/11 06:30:12;;;;;;;1.38;0.57;;;15.70;99.90;;;;;;5003306;28;20095;-85
2022/07/11 06:32:39;;;;;;;3.08;0.77;;;15.70;99.90;;;;;;5028021;28;20076;-85
2022/07/11 06:35:07;;;;;;;0.63;0.50;;;15.70;99.90;;;;;;5030560;28;20392;-84
2022/07/11 06:37:33;;;;;;;1.48;0.82;;;15.90;99.90;;;;;;5033069;28;20040;-84
2022/07/11 06:39:59;;;;;;;2.58;0.95;;;15.90;99.90;;;;;;5022148;28;20048;-85
2022/07/11 06:42:24;;;;;;;2.13;0.90;;;16.00;99.90;;;;;;5017514;28;20051;-84
2022/07/11 06:44:50;;;;;;;1.63;0.70;;;16.20;99.90;;;;;;5037710;28;20450;-84
2022/07/11 06:47:16;;;;;;;1.55;0.70;;;16.20;99.90;;;;;;5005426;28;20036;-85
2022/07/11 06:49:42;;;;;;;1.80;0.80;;;16.20;99.90;;;;;;5020977;28;20395;-86
2022/07/11 06:52:07;;;;;;;1.27;0.80;;;16.30;99.90;;;;;;5004412;28;20040;-84
2022/07/11 06:54:33;;;;;;;1.13;0.80;;;16.20;99.90;;;;;;5026146;28;20047;-84
2022/07/11 06:56:59;;;;;;;1.52;0.82;;;16.30;99.90;;;;;;5011639;28;20048;-84
2022/07/11 06:59:24;;;;;;;0.88;0.80;;;16.30;99.90;;;;;;5035713;28;20045;-84
2022/07/11 07:01:50;;;;;;;3.03;0.77;;;16.40;99.90;;;;;;5037604;28;20080;-84
2022/07/11 07:04:16;;;;;;;0.60;0.60;;;16.30;99.90;;;;;;5033190;28;20033;-85
2022/07/11 07:06:41;;;;;;;1.70;0.80;;;16.40;99.90;;;;;;5014774;28;20391;-85
2022/07/11 07:09:07;;;;;;;2.30;0.70;;;16.40;99.90;;;;;;5017400;28;20071;-86
2022/07/11 07:11:33;;;;;;;4.00;0.90;;;16.40;99.90;;;;;;5051497;28;20081;-84
2022/07/11 07:13:58;;;;;;;1.27;0.80;;;16.50;99.90;;;;;;5036910;28;20055;-84
2022/07/11 07:16:24;;;;;;;2.45;0.70;;;16.50;99.90;;;;;;5014697;28;20049;-84
2022/07/11 07:18:50;;;;;;;0.60;0.60;;;16.60;99.90;;;;;;5036082;28;20043;-84
2022/07/11 07:21:16;;;;;;;2.88;0.80;;;16.70;99.90;;;;;;5026570;28;20123;-86
2022/07/11 07:23:41;;;;;;;2.35;0.60;;;16.80;99.90;;;;;;5025504;28;20128;-85
2022/07/11 07:26:07;;;;;;;0.47;0.47;;;16.90;99.90;;;;;;5027360;28;20111;-85
2022/07/11 07:28:33;;;;;;;1.27;0.57;;;17.00;99.90;;;;;;5012773;28;20400;-84
2022/07/11 07:30:59;;;;;;;1.92;0.60;;;17.00;99.90;;;;;;5018791;28;20032;-85
2022/07/11 07:33:25;;;;;;;1.02;0.50;;;17.10;99.90;;;;;;5028533;28;20016;-86
2022/07/11 07:35:50;;;;;;;0.88;0.50;;;17.10;99.90;;;;;;5066911;28;20113;-84
2022/07/11 07:38:16;;;;;;;0.82;0.52;;;17.10;99.90;;;;;;5033841;28;20127;-85
2022/07/11 07:40:42;;;;;;;0.40;0.40;;;17.10;99.90;;;;;;5001635;28;20057;-85
2022/07/11 07:43:08;;;;;;;0.63;0.50;;;17.10;99.90;;;;;;5036627;28;20094;-85
2022/07/11 07:45:34;;;;;;;0.40;0.40;;;17.20;99.90;;;;;;5053916;28;20086;-86
2022/07/11 07:47:59;;;;;;;1.20;0.40;;;17.20;99.90;;;;;;5041143;28;20037;-85
2022/07/11 07:50:25;;;;;;;0.57;0.50;;;17.30;99.90;;;;;;5045254;28;20508;-85
2022/07/11 07:52:51;;;;;;;1.13;0.47;;;17.30;99.90;;;;;;5026756;28;20044;-85
2022/07/11 07:55:17;;;;;;;0.63;0.40;;;17.30;99.90;;;;;;5039901;28;20085;-85
2022/07/11 07:57:43;;;;;;;2.03;0.65;;;17.30;99.90;;;;;;5040309;28;20151;-85
2022/07/11 08:02:53;;;;;;;1.38;0.50;;;17.30;99.90;;;;;;5029911;28;20661;-85
2022/07/11 08:05:20;;;;;;;1.50;0.50;;;17.30;99.90;;;;;;5040748;28;20068;-84
2022/07/11 08:07:46;;;;;;;0.47;0.40;;;17.30;99.90;;;;;;5056153;28;20041;-85
2022/07/11 08:10:14;;;;;;;0.95;0.32;;;17.20;99.90;;;;;;5046076;28;20039;-84
2022/07/11 08:12:40;;;;;;;1.23;0.50;;;17.30;99.90;;;;;;5030032;28;20036;-85
2022/07/11 08:15:06;;;;;;;1.55;0.40;;;17.30;99.90;;;;;;5038469;28;20040;-85
2022/07/11 08:17:32;;;;;;;0.70;0.40;;;17.40;99.90;;;;;;5039120;28;20412;-83
2022/07/11 08:19:58;;;;;;;1.13;0.38;;;17.60;99.90;;;;;;5031850;28;20048;-85
2022/07/11 08:22:25;;;;;;;0.57;0.32;;;17.60;99.90;;;;;;5039748;28;20048;-85
2022/07/11 08:24:50;;;;;;;0.40;0.30;;;17.60;99.90;;;;;;5055353;28;20040;-85
2022/07/11 08:27:16;;;;;;;0.43;0.40;;;17.60;99.90;;;;;;5036302;28;20163;-85
2022/07/11 08:29:42;;;;;;;1.30;0.43;;;17.70;99.90;;;;;;5023723;28;20052;-85
2022/07/11 08:32:07;;;;;;;0.35;0.35;;;17.70;99.90;;;;;;5025189;28;20039;-85
2022/07/11 08:34:33;;;;;;;0.30;0.30;;;17.70;99.90;;;;;;5028719;28;20122;-84
2022/07/11 08:37:00;;;;;;;0.35;0.30;;;17.60;99.90;;;;;;5026404;28;20732;-85
2022/07/11 08:39:25;;;;;;;0.65;0.50;;;17.60;99.90;;;;;;5031233;28;20511;-85
2022/07/11 08:41:51;;;;;;;0.50;0.50;;;17.50;99.90;;;;;;5047184;28;20105;-86
2022/07/11 08:44:17;;;;;;;1.02;0.40;;;17.40;99.90;;;;;;5023610;28;20480;-85
2022/07/11 08:46:45;;;;;;;0.80;0.43;;;17.30;99.90;;;;;;5007502;28;20048;-85
2022/07/11 08:49:14;;;;;;;0.50;0.50;;;17.30;99.90;;;;;;5007694;28;20472;-84
2022/07/11 08:51:41;;;;;;;0.50;0.50;;;17.20;99.90;;;;;;5030971;28;20087;-85
2022/07/11 08:54:07;;;;;;;1.10;0.40;;;17.30;99.90;;;;;;5049302;28;20040;-85
2022/07/11 08:56:33;;;;;;;1.55;0.57;;;17.30;99.90;;;;;;5053678;28;20484;-84
2022/07/11 08:58:59;;;;;;;0.68;0.50;;;17.40;99.90;;;;;;5023275;28;20029;-87
2022/07/11 09:01:31;;;;;;;1.90;0.57;;;17.40;99.90;;;;;;5013989;28;20124;-85
2022/07/11 09:03:58;;;;;;;1.55;0.50;;;17.50;99.90;;;;;;5025988;28;20120;-85
2022/07/11 09:06:24;;;;;;;0.70;0.70;;;17.50;99.90;;;;;;5053507;28;20446;-85
2022/07/11 09:08:50;;;;;;;1.83;0.70;;;17.60;99.90;;;;;;5039430;28;20037;-85
2022/07/11 09:11:15;;;;;;;1.10;0.50;;;17.70;99.90;;;;;;5048734;28;20041;-84
2022/07/11 09:13:41;;;;;;;0.85;0.70;;;17.70;99.90;;;;;;5022590;28;20049;-85
2022/07/11 09:16:09;;;;;;;1.10;0.50;;;17.80;99.90;;;;;;5008503;28;20123;-84
2022/07/11 09:18:40;;;;;;;1.35;0.50;;;17.90;99.90;;;;;;5048409;28;20508;-85
2022/07/11 09:26:42;;;;;;;0.70;0.50;;;18.00;99.90;;;;;;5043608;28;20044;-85
2022/07/11 09:29:13;;;;;;;0.93;0.50;;;18.00;99.90;;;;;;5038500;28;20037;-85
2022/07/11 09:31:41;;;;;;;0.60;0.60;;;17.90;99.90;;;;;;5036206;28;20098;-84
2022/07/11 09:34:11;;;;;;;1.60;0.50;;;17.90;99.90;;;;;;5019889;28;20047;-86
2022/07/11 09:36:41;;;;;;;1.30;0.50;;;17.90;99.90;;;;;;5029721;28;20038;-87
2022/07/11 09:39:19;;;;;;;1.48;0.70;;;17.80;99.90;;;;;;5026904;28;20052;-85
2022/07/11 09:41:49;;;;;;;1.08;0.80;;;17.80;99.90;;;;;;5036697;28;20489;-85
2022/07/11 09:44:19;;;;;;;1.55;0.68;;;17.70;99.90;;;;;;5024350;28;20040;-84
2022/07/11 09:46:52;;;;;;;3.10;0.85;;;17.60;99.90;;;;;;5028828;28;20514;-85
2022/07/11 09:49:30;;;;;;;1.35;0.88;;;17.60;99.90;;;;;;5022109;28;20040;-84
2022/07/11 09:52:15;;;;;;;1.48;0.70;;;17.60;99.90;;;;;;5029900;28;20045;-85
2022/07/11 09:55:01;;;;;;;5.00;0.70;;;17.60;99.90;;;;;;5028979;28;20041;-86
2022/07/11 09:57:32;;;;;;;2.08;0.80;;;17.60;99.90;;;;;;5032083;28;20047;-85
2022/07/11 09:59:59;;;;;;;0.93;0.70;;;17.70;99.90;;;;;;5039709;28;20483;-85
2022/07/11 10:02:26;;;;;;;0.43;0.43;;;17.80;99.90;;;;;;5011965;28;20041;-85
2022/07/11 10:04:52;;;;;;;0.50;0.40;;;17.90;99.90;;;;;;5034592;28;20037;-84
2022/07/11 10:07:18;;;;;;;0.68;0.40;;;18.00;99.90;;;;;;5039655;28;20401;-85
2022/07/11 10:09:44;;;;;;;0.40;0.40;;;18.00;99.90;;;;;;5008369;28;20041;-85
2022/07/11 10:12:10;;;;;;;0.30;0.30;;;18.00;99.90;;;;;;5040975;28;20060;-85
2022/07/11 10:14:40;;;;;;;1.20;0.75;;;18.00;99.90;;;;;;5032054;28;20111;-86
2022/07/11 10:17:16;;;;;;;0.65;0.40;;;17.90;99.90;;;;;;5019009;28;20045;-84
2022/07/11 10:20:16;;;;;;;0.32;0.32;;;17.90;99.90;;;;;;5057564;28;20041;-87
2022/07/11 10:23:06;;;;;;;1.00;0.43;;;17.90;99.90;;;;;;5035292;28;20059;-86
2022/07/11 10:25:41;;;;;;;1.23;0.50;;;17.80;99.90;;;;;;5026492;28;20495;-86
2022/07/11 10:28:22;;;;;;;1.38;0.47;;;17.80;99.90;;;;;;5055159;28;20041;-85
2022/07/11 10:30:50;;;;;;;0.50;0.50;;;17.80;99.90;;;;;;5028527;28;20040;-85
2022/07/11 10:33:17;;;;;;;0.63;0.43;;;17.70;99.90;;;;;;5054731;28;20048;-85
2022/07/11 10:35:45;;;;;;;1.48;0.60;;;17.80;99.90;;;;;;5022568;28;20465;-84
2022/07/11 10:38:11;;;;;;;0.60;0.40;;;17.90;99.90;;;;;;5020487;28;20076;-84
2022/07/11 10:40:55;;;;;;;2.05;0.52;;;18.00;99.90;;;;;;5031706;28;20044;-85
2022/07/11 10:43:30;;;;;;;0.80;0.50;;;18.20;99.90;;;;;;5046944;28;20413;-84
2022/07/11 10:46:00;;;;;;;0.95;0.40;;;18.30;99.90;;;;;;5018508;28;20514;-84
2022/07/11 10:48:27;;;;;;;1.15;0.50;;;18.40;99.90;;;;;;5025366;28;20054;-84
2022/07/11 10:51:09;;;;;;;0.57;0.38;;;18.50;99.90;;;;;;5025140;28;20037;-85
2022/07/11 10:53:45;;;;;;;1.73;0.40;;;18.60;99.90;;;;;;5022736;28;20047;-84
2022/07/11 10:56:43;;;;;;;0.63;0.60;;;18.60;99.90;;;;;;5032777;28;20048;-84
2022/07/11 10:59:15;;;;;;;1.10;0.50;;;18.60;99.90;;;;;;5014903;28;20419;-82
2022/07/11 11:02:00;;;;;;;;;;;18.60;99.90;;;;;;5032384;28;20071;-84
2022/07/11 11:04:47;;;;;;;0.57;0.50;;;18.50;99.90;;;;;;5047422;28;20459;-85
2022/07/11 11:07:43;;;;;;;0.47;0.35;;;18.50;99.90;;;;;;5026731;28;20124;-86
2022/07/11 11:10:17;;;;;;;0.68;0.50;;;18.50;99.90;;;;;;5050160;28;20044;-85
2022/07/11 11:13:04;;;;;;;3.05;0.60;;;18.50;99.90;;;;;;5046187;28;20627;-85
2022/07/11 11:15:51;;;;;;;0.40;0.40;;;18.60;99.90;;;;;;5017340;28;20060;-84
2022/07/11 11:18:26;;;;;;;1.10;0.40;;;18.60;99.90;;;;;;5034074;28;20055;-86
2022/07/11 11:21:05;;;;;;;0.30;0.30;;;18.60;99.90;;;;;;5021288;28;20037;-85
2022/07/11 11:23:35;;;;;;;1.55;0.50;;;18.60;99.90;;;;;;5034594;28;20036;-84
2022/07/11 11:26:42;;;;;;;0.90;0.60;;;18.60;99.90;;;;;;5036370;28;20048;-85
2022/07/11 11:29:08;;;;;;;0.85;0.50;;;18.60;99.90;;;;;;5000342;28;20083;-85
2022/07/11 11:31:34;;;;;;;1.13;0.43;;;18.50;99.90;;;;;;5055457;28;20036;-84
2022/07/11 11:34:02;;;;;;;2.17;0.63;;;18.60;99.90;;;;;;5026477;28;20098;-84
2022/07/11 11:36:28;;;;;;;0.63;0.60;;;18.70;99.90;;;;;;5021820;28;20041;-85
2022/07/11 11:38:55;;;;;;;0.70;0.43;;;18.90;99.90;;;;;;5036897;28;20051;-85
2022/07/11 11:41:30;;;;;;;0.65;0.50;;;19.10;99.90;;;;;;5020544;28;20391;-86
2022/07/11 11:44:00;;;;;;;1.05;0.50;;;19.20;99.90;;;;;;5048848;28;20069;-86
2022/07/11 11:46:31;;;;;;;2.90;0.52;;;19.20;99.90;;;;;;5028445;28;20044;-85
2022/07/11 11:49:02;;;;;;;1.23;0.60;;;19.10;99.90;;;;;;5028006;28;20479;-85
2022/07/11 11:51:29;;;;;;;2.38;0.68;;;19.10;99.90;;;;;;5036776;28;20040;-85
2022/07/11 11:53:57;;;;;;;0.40;0.40;;;19.10;99.90;;;;;;5009405;28;20057;-83
2022/07/11 11:56:32;;;;;;;0.82;0.50;;;19.10;99.90;;;;;;5039783;28;20044;-85
2022/07/11 11:59:01;;;;;;;0.40;0.40;;;19.00;99.90;;;;;;5045588;28;20048;-85
2022/07/11 12:01:29;;;;;;;1.00;0.45;;;19.00;99.90;;;;;;5048651;28;20080;-84
2022/07/11 12:03:55;;;;;;;0.75;0.52;;;19.10;99.90;;;;;;5036179;28;20055;-85
2022/07/11 12:06:24;;;;;;;1.42;0.57;;;19.10;99.90;;;;;;5025333;28;20048;-85
2022/07/11 12:08:50;;;;;;;0.50;0.50;;;19.10;99.90;;;;;;5053898;28;20095;-84
2022/07/11 12:11:17;;;;;;;0.90;0.52;;;19.10;99.90;;;;;;5033633;28;20083;-86
2022/07/11 12:13:43;;;;;;;1.05;0.75;;;19.10;99.90;;;;;;5000871;28;20476;-85
2022/07/11 12:19:02;;;;;;;;;;;19.10;99.90;;;;;;5038236;28;20059;-85
2022/07/11 12:21:29;;;;;;;0.80;0.50;;;19.10;99.90;;;;;;5044851;28;20265;-85
2022/07/11 12:24:02;;;;;;;0.50;0.50;;;19.10;99.90;;;;;;5022076;28;20044;-85
2022/07/11 12:26:32;;;;;;;0.80;0.57;;;19.00;99.90;;;;;;5032751;28;20087;-85
2022/07/11 12:29:12;;;;;;;0.60;0.60;;;19.00;99.90;;;;;;5004385;28;20050;-86
2022/07/11 12:31:48;;;;;;;1.58;0.70;;;19.00;99.90;;;;;;5019532;28;20039;-85
2022/07/11 12:34:22;;;;;;;0.90;0.60;;;19.00;99.90;;;;;;5042797;28;20040;-85
2022/07/11 12:36:49;;;;;;;1.05;0.90;;;19.00;99.90;;;;;;5039718;28;20040;-84
2022/07/11 12:39:25;;;;;;;0.82;0.50;;;19.10;99.90;;;;;;5043765;28;20072;-85
2022/07/11 12:41:56;;;;;;;2.10;0.68;;;19.10;99.90;;;;;;5030161;28;20051;-84
2022/07/11 12:47:16;;;;;;;1.75;1.20;;;19.00;99.90;;;;;;5037458;28;20045;-85
2022/07/11 12:49:45;;;;;;;1.25;0.98;;;18.90;99.90;;;;;;5023191;28;20039;-85
2022/07/11 12:52:12;;;;;;;0.90;0.80;;;18.80;99.90;;;;;;5030945;28;20024;-85
2022/07/11 12:54:39;;;;;;;0.98;0.80;;;18.80;99.90;;;;;;5043722;28;20029;-85
2022/07/11 12:57:06;;;;;;;0.95;0.80;;;18.90;99.90;;;;;;5034723;28;20090;-86
2022/07/11 12:59:32;;;;;;;0.73;0.68;;;19.00;99.90;;;;;;5037412;28;20114;-86
2022/07/11 13:01:58;;;;;;;1.33;0.73;;;19.10;99.90;;;;;;5020153;28;20392;-86
2022/07/11 13:04:40;;;;;;;1.50;0.80;;;19.20;99.90;;;;;;5030558;28;20120;-84
2022/07/11 13:10:16;;;;;;;0.60;0.60;;;19.20;99.90;;;;;;5045219;28;20070;-88
2022/07/11 13:12:43;;;;;;;2.58;0.80;;;19.20;99.90;;;;;;5035635;28;20041;-84